createdAt,value
2018-07-11T00:00:26.598Z,19.94
2018-07-11T00:01:36.676Z,19.94
2018-07-11T00:02:46.813Z,19.89
2018-07-11T00:03:56.620Z,19.87
2018-07-11T00:05:06.408Z,19.87
2018-07-11T00:06:15.955Z,19.84
2018-07-11T00:07:25.497Z,19.79
2018-07-11T00:08:35.622Z,19.81
2018-07-11T00:09:45.408Z,19.79
2018-07-11T00:10:55.477Z,19.71
2018-07-11T00:12:05.564Z,19.77
2018-07-11T00:13:15.627Z,19.66
2018-07-11T00:14:25.475Z,19.66
2018-07-11T00:15:35.262Z,19.67
2018-07-11T00:16:45.063Z,19.67
2018-07-11T00:17:54.608Z,19.6
2018-07-11T00:19:04.432Z,19.56
2018-07-11T00:20:14.286Z,19.56
2018-07-11T00:21:23.546Z,19.49
2018-07-11T00:22:33.621Z,19.52
2018-07-11T00:23:43.701Z,19.45
2018-07-11T00:24:53.504Z,19.41
2018-07-11T00:26:03.637Z,19.47
2018-07-11T00:27:13.155Z,19.45
2018-07-11T00:28:22.697Z,19.39
2018-07-11T00:29:32.776Z,19.44
2018-07-11T00:30:42.577Z,19.45
2018-07-11T00:31:52.699Z,19.49
2018-07-11T00:33:02.762Z,19.35
2018-07-11T00:34:12.568Z,19.38
2018-07-11T00:35:22.657Z,19.39
2018-07-11T00:36:32.463Z,19.39
2018-07-11T00:37:42.575Z,19.38
2018-07-11T00:38:52.640Z,19.34
2018-07-11T00:40:02.715Z,19.27
2018-07-11T00:41:12.523Z,19.22
2018-07-11T00:42:22.308Z,19.12
2018-07-11T00:43:32.431Z,19.24
2018-07-11T00:44:42.516Z,19.2
2018-07-11T00:45:52.590Z,19.29
2018-07-11T00:47:02.649Z,19.24
2018-07-11T00:48:12.444Z,19.32
2018-07-11T00:49:22.283Z,19.24
2018-07-11T00:50:32.348Z,19.24
2018-07-11T00:51:42.416Z,19.29
2018-07-11T00:52:52.504Z,19.23
2018-07-11T00:54:02.580Z,19.32
2018-07-11T00:55:11.892Z,19.23
2018-07-11T00:56:21.682Z,19.26
2018-07-11T00:57:31.759Z,19.26
2018-07-11T00:58:41.577Z,19.26
2018-07-11T00:59:51.363Z,19.2
2018-07-11T01:01:00.945Z,19.23
2018-07-11T01:02:10.729Z,19.24
2018-07-11T01:03:20.806Z,19.2
2018-07-11T01:04:30.873Z,19.26
2018-07-11T01:05:40.959Z,19.11
2018-07-11T01:06:51.101Z,19.12
2018-07-11T01:08:00.644Z,19.2
2018-07-11T01:09:10.726Z,19.09
2018-07-11T01:10:20.794Z,19.11
2018-07-11T01:11:30.604Z,19.27
2018-07-11T01:12:40.698Z,19.2
2018-07-11T01:13:50.223Z,19.17
2018-07-11T01:15:00.298Z,19.22
2018-07-11T01:16:09.823Z,19.15
2018-07-11T01:17:19.889Z,19.15
2018-07-11T01:18:29.750Z,19.11
2018-07-11T01:19:39.823Z,19.24
2018-07-11T01:20:49.885Z,19.08
2018-07-11T01:21:59.960Z,19.11
2018-07-11T01:23:09.487Z,19.17
2018-07-11T01:24:19.072Z,19.19
2018-07-11T01:25:28.618Z,19.19
2018-07-11T01:26:37.872Z,19.12
2018-07-11T01:27:47.941Z,19.09
2018-07-11T01:28:57.477Z,19.19
2018-07-11T01:30:06.782Z,19.04
2018-07-11T01:31:16.580Z,19.09
2018-07-11T01:32:26.392Z,19.01
2018-07-11T01:33:36.190Z,18.96
2018-07-11T01:34:46.278Z,19.01
2018-07-11T01:35:56.133Z,19
2018-07-11T01:37:05.925Z,19.04
2018-07-11T01:38:15.722Z,18.92
2018-07-11T01:39:25.796Z,18.97
2018-07-11T01:40:35.866Z,18.89
2018-07-11T01:41:45.990Z,18.97
2018-07-11T01:42:55.512Z,19.04
2018-07-11T01:44:05.584Z,19.01
2018-07-11T01:45:15.650Z,18.88
2018-07-11T01:46:25.711Z,19.04
2018-07-11T01:47:35.833Z,19.04
2018-07-11T01:48:45.631Z,18.91
2018-07-11T01:49:55.161Z,18.97
2018-07-11T01:51:04.427Z,19.04
2018-07-11T01:52:14.216Z,19.01
2018-07-11T01:53:23.794Z,18.91
2018-07-11T01:54:33.873Z,18.97
2018-07-11T01:55:44.000Z,19
2018-07-11T01:56:54.052Z,18.91
2018-07-11T01:58:03.844Z,18.89
2018-07-11T01:59:13.438Z,19.01
2018-07-11T02:00:23.245Z,19.05
2018-07-11T02:01:33.303Z,19
2018-07-11T02:02:43.386Z,18.97
2018-07-11T02:03:53.444Z,18.97
2018-07-11T02:05:03.020Z,19
2018-07-11T02:06:13.067Z,19.01
2018-07-11T02:07:23.136Z,18.94
2018-07-11T02:08:33.200Z,19.07
2018-07-11T02:09:43.264Z,19.05
2018-07-11T02:10:53.383Z,18.97
2018-07-11T02:12:03.455Z,19
2018-07-11T02:13:13.243Z,19
2018-07-11T02:14:23.315Z,19.01
2018-07-11T02:15:33.121Z,18.98
2018-07-11T02:16:42.689Z,18.96
2018-07-11T02:17:52.493Z,19.04
2018-07-11T02:19:02.308Z,19.01
2018-07-11T02:20:12.086Z,19.01
2018-07-11T02:21:22.133Z,18.92
2018-07-11T02:22:31.973Z,18.97
2018-07-11T02:23:41.503Z,18.92
2018-07-11T02:24:51.572Z,19
2018-07-11T02:26:01.377Z,18.96
2018-07-11T02:27:11.168Z,18.89
2018-07-11T02:28:21.292Z,18.88
2018-07-11T02:29:31.115Z,18.85
2018-07-11T02:30:41.193Z,18.89
2018-07-11T02:31:51.281Z,18.81
2018-07-11T02:33:00.539Z,18.86
2018-07-11T02:34:09.589Z,18.76
2018-07-11T02:35:19.128Z,18.86
2018-07-11T02:36:29.206Z,18.88
2018-07-11T02:37:39.292Z,18.91
2018-07-11T02:38:49.104Z,18.86
2018-07-11T02:39:59.250Z,18.86
2018-07-11T02:41:08.799Z,18.78
2018-07-11T02:42:18.348Z,18.89
2018-07-11T02:43:28.444Z,18.89
2018-07-11T02:44:38.520Z,18.97
2018-07-11T02:45:48.683Z,18.88
2018-07-11T02:46:58.473Z,18.89
2018-07-11T02:48:08.555Z,18.86
2018-07-11T02:49:18.618Z,18.86
2018-07-11T02:50:28.700Z,18.85
2018-07-11T02:51:38.545Z,18.97
2018-07-11T02:52:48.622Z,18.94
2018-07-11T02:53:58.156Z,18.88
2018-07-11T02:55:07.957Z,18.86
2018-07-11T02:56:18.037Z,18.85
2018-07-11T02:57:28.166Z,18.85
2018-07-11T02:58:37.718Z,18.98
2018-07-11T02:59:47.262Z,18.88
2018-07-11T03:03:44.347Z,18.82
2018-07-11T03:04:54.163Z,18.89
2018-07-11T03:06:03.968Z,18.85
2018-07-11T03:07:14.047Z,18.91
2018-07-11T03:08:24.152Z,18.88
2018-07-11T03:09:33.999Z,18.97
2018-07-11T03:10:43.834Z,18.96
2018-07-11T03:11:53.654Z,18.86
2018-07-11T03:13:03.712Z,18.94
2018-07-11T03:14:13.800Z,18.92
2018-07-11T03:15:23.670Z,18.85
2018-07-11T03:16:33.749Z,18.89
2018-07-11T03:17:43.565Z,18.97
2018-07-11T03:18:53.380Z,19.04
2018-07-11T03:20:03.449Z,19.04
2018-07-11T03:21:13.032Z,19
2018-07-11T03:22:22.296Z,19.01
2018-07-11T03:23:32.371Z,19.05
2018-07-11T03:24:42.169Z,19.04
2018-07-11T03:25:51.708Z,19.05
2018-07-11T03:27:01.307Z,19.08
2018-07-11T03:28:10.818Z,19.19
2018-07-11T03:29:20.645Z,19.05
2018-07-11T03:30:30.455Z,19.15
2018-07-11T03:31:40.271Z,19.05
2018-07-11T03:32:50.463Z,19.08
2018-07-11T03:34:00.534Z,19.08
2018-07-11T03:35:10.329Z,19.07
2018-07-11T03:36:20.387Z,19.05
2018-07-11T03:37:30.181Z,19.04
2018-07-11T03:38:39.781Z,19
2018-07-11T03:39:49.856Z,19
2018-07-11T03:40:59.126Z,19.04
2018-07-11T03:42:08.660Z,18.97
2018-07-11T03:43:18.739Z,19.05
2018-07-11T03:44:28.589Z,19.05
2018-07-11T03:45:38.390Z,19.04
2018-07-11T03:46:47.917Z,19.01
2018-07-11T03:47:57.996Z,19.04
2018-07-11T03:49:07.791Z,19.04
2018-07-11T03:50:17.919Z,19.07
2018-07-11T03:51:28.007Z,19.07
2018-07-11T03:52:38.068Z,19.01
2018-07-11T03:53:47.748Z,19
2018-07-11T03:54:58.093Z,19.15
2018-07-11T03:56:08.208Z,19.05
2018-07-11T03:57:18.293Z,19.15
2018-07-11T03:58:28.382Z,19.19
2018-07-11T03:59:38.182Z,19.22
2018-07-11T04:00:48.271Z,19.22
2018-07-11T04:01:58.118Z,19.17
2018-07-11T04:03:07.918Z,19.11
2018-07-11T04:04:18.019Z,19.19
2018-07-11T04:05:28.092Z,19.22
2018-07-11T04:06:37.887Z,19.27
2018-07-11T04:07:47.745Z,19.24
2018-07-11T04:08:57.820Z,19.22
2018-07-11T04:10:07.633Z,19.24
2018-07-11T04:11:17.712Z,19.27
2018-07-11T04:12:27.808Z,19.24
2018-07-11T04:13:37.914Z,19.27
2018-07-11T04:14:47.974Z,19.35
2018-07-11T04:15:58.026Z,19.42
2018-07-11T04:17:07.826Z,19.39
2018-07-11T04:18:17.356Z,19.37
2018-07-11T04:19:26.656Z,19.42
2018-07-11T04:20:36.456Z,19.38
2018-07-11T04:21:46.534Z,19.47
2018-07-11T04:22:56.073Z,19.48
2018-07-11T04:24:05.881Z,19.57
2018-07-11T04:25:15.484Z,19.59
2018-07-11T04:26:25.293Z,19.57
2018-07-11T04:27:34.828Z,19.6
2018-07-11T04:28:45.025Z,19.64
2018-07-11T04:29:54.963Z,19.66
2018-07-11T04:31:04.830Z,19.7
2018-07-11T04:32:14.910Z,19.74
2018-07-11T04:33:25.126Z,19.71
2018-07-11T04:34:35.539Z,19.82
2018-07-11T04:35:45.250Z,19.92
2018-07-11T04:36:54.827Z,19.79
2018-07-11T04:38:04.886Z,19.94
2018-07-11T04:39:14.694Z,19.84
2018-07-11T04:40:24.487Z,19.93
2018-07-11T04:41:34.565Z,20.04
2018-07-11T04:42:44.694Z,20.07
2018-07-11T04:43:54.502Z,19.99
2018-07-11T04:45:04.310Z,20.11
2018-07-11T04:46:14.395Z,20.11
2018-07-11T04:47:24.463Z,20.11
2018-07-11T04:48:34.051Z,20.12
2018-07-11T04:49:43.585Z,20.18
2018-07-11T04:50:53.382Z,20.24
2018-07-11T04:52:03.443Z,20.27
2018-07-11T04:53:13.246Z,20.26
2018-07-11T04:54:23.373Z,20.19
2018-07-11T04:55:33.166Z,20.21
2018-07-11T04:56:42.967Z,20.3
2018-07-11T04:57:53.035Z,20.12
2018-07-11T04:59:03.114Z,20.18
2018-07-11T05:00:13.250Z,19.99
2018-07-11T05:01:23.032Z,20
2018-07-11T05:02:33.112Z,19.99
2018-07-11T05:03:42.954Z,19.92
2018-07-11T05:04:53.331Z,19.94
2018-07-11T05:06:03.239Z,19.99
2018-07-11T05:07:13.313Z,19.96
2018-07-11T05:08:23.381Z,19.94
2018-07-11T05:09:33.470Z,19.9
2018-07-11T05:10:43.609Z,19.96
2018-07-11T05:11:53.232Z,20.03
2018-07-11T05:13:03.023Z,20.04
2018-07-11T05:14:13.075Z,20.04
2018-07-11T05:15:23.168Z,20.08
2018-07-11T05:16:32.430Z,20.12
2018-07-11T05:17:42.278Z,20.11
2018-07-11T05:18:52.342Z,20.11
2018-07-11T05:20:02.415Z,20.14
2018-07-11T05:21:11.931Z,20.22
2018-07-11T05:22:22.021Z,20.27
2018-07-11T05:23:31.882Z,20.33
2018-07-11T05:24:41.985Z,20.24
2018-07-11T05:25:51.527Z,20.29
2018-07-11T05:27:01.595Z,20.37
2018-07-11T05:28:11.129Z,20.44
2018-07-11T05:29:21.257Z,20.42
2018-07-11T05:30:31.351Z,20.32
2018-07-11T05:31:41.149Z,20.42
2018-07-11T05:32:50.965Z,20.48
2018-07-11T05:34:01.067Z,20.49
2018-07-11T05:35:10.925Z,20.55
2018-07-11T05:36:21.199Z,20.48
2018-07-11T05:37:31.430Z,20.56
2018-07-11T05:38:41.510Z,20.42
2018-07-11T05:39:51.589Z,20.48
2018-07-11T05:41:01.726Z,20.46
2018-07-11T05:42:11.276Z,20.59
2018-07-11T05:43:20.819Z,20.66
2018-07-11T05:44:30.894Z,20.74
2018-07-11T05:45:40.971Z,20.74
2018-07-11T05:46:50.819Z,20.77
2018-07-11T05:48:00.630Z,20.74
2018-07-11T05:49:10.788Z,20.78
2018-07-11T05:50:20.583Z,20.64
2018-07-11T05:51:29.863Z,20.63
2018-07-11T05:52:40.004Z,20.7
2018-07-11T05:53:49.553Z,20.8
2018-07-11T05:54:59.372Z,20.85
2018-07-11T05:56:09.182Z,20.9
2018-07-11T05:57:19.254Z,20.96
2018-07-11T05:58:29.404Z,20.9
2018-07-11T05:59:39.546Z,21.1
2018-07-11T06:00:49.077Z,21.1
2018-07-11T06:01:58.879Z,21.17
2018-07-11T06:03:08.697Z,21.25
2018-07-11T06:04:18.540Z,21.22
2018-07-11T06:05:28.516Z,21.29
2018-07-11T06:06:38.549Z,21.28
2018-07-11T06:07:48.624Z,21.4
2018-07-11T06:08:58.444Z,21.33
2018-07-11T06:10:08.298Z,21.25
2018-07-11T06:11:18.103Z,21.3
2018-07-11T06:12:28.176Z,21.41
2018-07-11T06:13:37.831Z,21.5
2018-07-11T06:14:48.200Z,21.56
2018-07-11T06:15:58.352Z,21.59
2018-07-11T06:17:08.172Z,21.77
2018-07-11T06:18:18.260Z,21.77
2018-07-11T06:19:28.085Z,21.78
2018-07-11T06:20:37.622Z,21.88
2018-07-11T06:21:47.477Z,21.94
2018-07-11T06:22:57.542Z,22.06
2018-07-11T06:24:06.862Z,22.14
2018-07-11T06:25:16.703Z,22.19
2018-07-11T06:26:26.778Z,22.23
2018-07-11T06:27:36.644Z,22.38
2018-07-11T06:28:46.470Z,22.14
2018-07-11T06:29:56.591Z,22.06
2018-07-11T06:31:06.662Z,22.21
2018-07-11T06:32:16.734Z,22.12
2018-07-11T06:33:26.686Z,22.26
2018-07-11T06:34:36.573Z,22.1
2018-07-11T06:35:46.106Z,22
2018-07-11T06:36:56.234Z,21.85
2018-07-11T06:38:05.920Z,22.08
2018-07-11T06:39:16.411Z,22.22
2018-07-11T06:40:26.835Z,22.28
2018-07-11T06:41:36.371Z,22.26
2018-07-11T06:42:45.897Z,22.33
2018-07-11T06:43:55.977Z,22.31
2018-07-11T06:45:05.829Z,22.44
2018-07-11T06:46:15.921Z,22.47
2018-07-11T06:47:25.461Z,22.51
2018-07-11T06:48:35.281Z,22.73
2018-07-11T06:49:45.369Z,22.88
2018-07-11T06:50:55.509Z,22.83
2018-07-11T06:52:05.737Z,22.93
2018-07-11T06:53:16.109Z,23.06
2018-07-11T06:54:25.934Z,23.1
2018-07-11T06:55:35.720Z,22.95
2018-07-11T06:56:45.853Z,22.96
2018-07-11T06:57:55.678Z,23.13
2018-07-11T06:59:05.762Z,23.32
2018-07-11T07:00:15.567Z,23.42
2018-07-11T07:01:25.699Z,23.44
2018-07-11T07:02:35.291Z,23.52
2018-07-11T07:03:45.106Z,23.64
2018-07-11T07:04:54.932Z,23.66
2018-07-11T07:06:05.002Z,23.76
2018-07-11T07:07:14.270Z,23.89
2018-07-11T07:08:24.137Z,23.89
2018-07-11T07:09:33.937Z,24.01
2018-07-11T07:10:43.468Z,24.04
2018-07-11T07:11:53.280Z,24.03
2018-07-11T07:13:02.820Z,23.67
2018-07-11T07:14:12.412Z,23.55
2018-07-11T07:15:21.952Z,23.58
2018-07-11T07:16:31.826Z,23.69
2018-07-11T07:17:41.494Z,23.67
2018-07-11T07:18:50.757Z,23.77
2018-07-11T07:20:00.874Z,23.85
2018-07-11T07:21:10.697Z,23.95
2018-07-11T07:22:20.489Z,23.95
2018-07-11T07:23:30.667Z,24.06
2018-07-11T07:24:40.761Z,24.07
2018-07-11T07:25:50.616Z,23.99
2018-07-11T07:27:00.715Z,24.1
2018-07-11T07:28:10.805Z,24.1
2018-07-11T07:29:20.065Z,24
2018-07-11T07:30:29.612Z,23.86
2018-07-11T07:31:39.189Z,23.99
2018-07-11T07:32:48.996Z,24.06
2018-07-11T07:33:58.814Z,24.06
2018-07-11T07:35:08.347Z,24.07
2018-07-11T07:36:18.169Z,24.21
2018-07-11T07:37:28.326Z,24.29
2018-07-11T07:38:38.152Z,24.26
2018-07-11T07:39:48.240Z,24.34
2018-07-11T07:40:57.798Z,24.53
2018-07-11T07:42:07.607Z,24.63
2018-07-11T07:43:16.934Z,24.81
2018-07-11T07:44:26.752Z,24.88
2018-07-11T07:45:36.839Z,24.89
2018-07-11T07:46:46.390Z,24.99
2018-07-11T07:47:56.223Z,25.15
2018-07-11T07:49:06.366Z,24.97
2018-07-11T07:50:16.451Z,24.89
2018-07-11T07:51:26.523Z,24.85
2018-07-11T07:52:36.059Z,24.85
2018-07-11T07:53:45.876Z,24.61
2018-07-11T07:54:55.735Z,24.31
2018-07-11T07:56:05.562Z,24.18
2018-07-11T07:57:15.650Z,24.21
2018-07-11T07:58:25.178Z,24.31
2018-07-11T07:59:34.723Z,24.31
2018-07-11T08:00:44.297Z,24.18
2018-07-11T08:01:54.120Z,24.04
2018-07-11T08:03:03.658Z,23.92
2018-07-11T08:04:13.494Z,24.09
2018-07-11T08:05:23.606Z,23.89
2018-07-11T08:06:33.199Z,24.01
2018-07-11T08:07:42.744Z,24.09
2018-07-11T08:08:52.014Z,24.24
2018-07-11T08:10:01.818Z,24.24
2018-07-11T08:11:11.628Z,24.36
2018-07-11T08:12:21.489Z,24.19
2018-07-11T08:13:31.564Z,24.11
2018-07-11T08:14:41.663Z,23.99
2018-07-11T08:15:51.739Z,23.95
2018-07-11T08:17:01.274Z,23.96
2018-07-11T08:18:11.123Z,24
2018-07-11T08:19:20.951Z,23.96
2018-07-11T08:20:30.803Z,23.92
2018-07-11T08:21:40.339Z,24
2018-07-11T08:22:50.421Z,24.07
2018-07-11T08:24:00.276Z,24.24
2018-07-11T08:25:10.122Z,24.32
2018-07-11T08:26:19.940Z,24.44
2018-07-11T08:27:29.923Z,24.62
2018-07-11T08:28:40.156Z,24.77
2018-07-11T08:29:50.016Z,25.03
2018-07-11T08:30:59.815Z,25.15
2018-07-11T08:32:09.899Z,25.29
2018-07-11T08:33:19.703Z,25.4
2018-07-11T08:34:29.507Z,25.51
2018-07-11T08:35:39.714Z,25.44
2018-07-11T08:36:49.504Z,25.39
2018-07-11T08:37:59.568Z,25.29
2018-07-11T08:39:09.630Z,25.29
2018-07-11T08:40:19.169Z,25.16
2018-07-11T08:41:28.779Z,24.97
2018-07-11T08:42:38.587Z,24.84
2018-07-11T08:43:48.389Z,25.01
2018-07-11T08:44:58.459Z,25.11
2018-07-11T08:46:08.004Z,25.15
2018-07-11T08:47:18.141Z,25.16
2018-07-11T08:48:27.932Z,25.4
2018-07-11T08:49:37.195Z,25.43
2018-07-11T08:50:47.280Z,25.39
2018-07-11T08:51:57.087Z,25.56
2018-07-11T08:53:06.420Z,25.71
2018-07-11T08:54:16.508Z,25.78
2018-07-11T08:55:26.342Z,25.93
2018-07-11T08:56:36.414Z,26.06
2018-07-11T08:57:46.501Z,26.07
2018-07-11T08:58:56.381Z,26.11
2018-07-11T09:00:06.192Z,26.08
2018-07-11T09:01:16.269Z,26.16
2018-07-11T09:02:26.358Z,26.19
2018-07-11T09:03:36.170Z,26.31
2018-07-11T09:04:46.315Z,26.31
2018-07-11T09:05:56.408Z,26.41
2018-07-11T09:07:06.223Z,26.46
2018-07-11T09:08:16.056Z,26.53
2018-07-11T09:09:25.603Z,26.64
2018-07-11T09:10:35.952Z,26.63
2018-07-11T09:11:45.958Z,26.74
2018-07-11T09:12:55.761Z,26.83
2018-07-11T09:14:05.290Z,27.01
2018-07-11T09:15:15.089Z,26.64
2018-07-11T09:16:25.238Z,26.56
2018-07-11T09:17:35.314Z,26.44
2018-07-11T09:18:45.127Z,26.42
2018-07-11T09:19:55.205Z,26.45
2018-07-11T09:21:05.028Z,26.22
2018-07-11T09:22:14.892Z,26.03
2018-07-11T09:23:24.700Z,25.98
2018-07-11T09:24:34.509Z,25.99
2018-07-11T09:25:43.773Z,25.99
2018-07-11T09:26:53.315Z,25.92
2018-07-11T09:28:03.444Z,25.88
2018-07-11T09:29:13.234Z,25.58
2018-07-11T09:30:22.778Z,25.76
2018-07-11T09:31:32.886Z,25.74
2018-07-11T09:32:42.957Z,25.44
2018-07-11T09:33:53.100Z,25.29
2018-07-11T09:35:03.169Z,25.39
2018-07-11T09:36:12.434Z,25.52
2018-07-11T09:37:22.520Z,25.31
2018-07-11T09:38:32.392Z,25.46
2018-07-11T09:39:42.259Z,25.31
2018-07-11T09:40:52.072Z,25.44
2018-07-11T09:42:01.882Z,25.34
2018-07-11T09:43:11.958Z,25.46
2018-07-11T09:44:21.773Z,25.3
2018-07-11T09:45:31.207Z,25.25
2018-07-11T09:46:41.538Z,25.11
2018-07-11T09:47:51.366Z,25.04
2018-07-11T09:49:01.159Z,24.97
2018-07-11T09:50:10.986Z,25.01
2018-07-11T09:51:20.836Z,25.07
2018-07-11T09:52:30.679Z,25.06
2018-07-11T09:53:40.762Z,25.16
2018-07-11T09:54:50.902Z,25.12
2018-07-11T09:56:00.455Z,25.11
2018-07-11T09:57:10.640Z,25.22
2018-07-11T09:58:19.929Z,25.31
2018-07-11T09:59:29.451Z,25.26
2018-07-11T10:00:39.513Z,25.11
2018-07-11T10:01:49.064Z,25.15
2018-07-11T10:02:59.208Z,25.29
2018-07-11T10:04:09.042Z,25.19
2018-07-11T10:05:18.839Z,25.3
2018-07-11T10:06:28.762Z,25.18
2018-07-11T10:07:38.571Z,25.3
2018-07-11T10:08:48.435Z,25.44
2018-07-11T10:09:57.445Z,25.59
2018-07-11T10:11:07.268Z,25.56
2018-07-11T10:12:17.357Z,25.55
2018-07-11T10:13:27.471Z,25.62
2018-07-11T10:14:36.795Z,25.7
2018-07-11T10:15:46.621Z,25.71
2018-07-11T10:16:56.423Z,25.63
2018-07-11T10:18:06.230Z,25.76
2018-07-11T10:19:16.044Z,25.74
2018-07-11T10:20:25.910Z,25.83
2018-07-11T10:21:35.903Z,25.78
2018-07-11T10:22:46.108Z,25.78
2018-07-11T10:23:56.176Z,25.76
2018-07-11T10:25:06.246Z,25.8
2018-07-11T10:26:16.384Z,25.74
2018-07-11T10:27:25.676Z,25.71
2018-07-11T10:28:35.214Z,25.85
2018-07-11T10:29:45.019Z,26.01
2018-07-11T10:30:54.566Z,26.08
2018-07-11T10:32:03.901Z,26.08
2018-07-11T10:33:13.440Z,26.18
2018-07-11T10:34:23.253Z,26.23
2018-07-11T10:35:33.093Z,26.41
2018-07-11T10:36:43.166Z,26.46
2018-07-11T10:37:53.025Z,26.53
2018-07-11T10:39:03.247Z,26.71
2018-07-11T10:40:13.207Z,26.81
2018-07-11T10:41:23.292Z,26.91
2018-07-11T10:42:32.845Z,26.86
2018-07-11T10:43:42.425Z,27.07
2018-07-11T10:44:52.224Z,27.29
2018-07-11T10:46:02.126Z,27.44
2018-07-11T10:47:11.688Z,27.63
2018-07-11T10:48:21.209Z,27.88
2018-07-11T10:49:31.333Z,28.13
2018-07-11T10:50:41.420Z,28.01
2018-07-11T10:51:51.492Z,28.03
2018-07-11T10:53:01.291Z,28.18
2018-07-11T10:54:11.119Z,28.23
2018-07-11T10:55:21.256Z,28.28
2018-07-11T10:56:31.059Z,28.28
2018-07-11T10:57:41.286Z,28.27
2018-07-11T10:58:51.783Z,28.37
2018-07-11T11:00:01.867Z,28.22
2018-07-11T11:01:11.593Z,28.22
2018-07-11T11:02:21.830Z,28.25
2018-07-11T11:03:31.370Z,28.35
2018-07-11T11:04:41.509Z,28.23
2018-07-11T11:05:51.670Z,28.31
2018-07-11T11:07:01.523Z,28.2
2018-07-11T11:08:11.784Z,28.23
2018-07-11T11:09:21.580Z,28.23
2018-07-11T11:10:31.395Z,28.18
2018-07-11T11:11:41.220Z,28.25
2018-07-11T11:12:51.359Z,28.28
2018-07-11T11:14:00.923Z,28.27
2018-07-11T11:15:10.453Z,28.25
2018-07-11T11:16:20.282Z,28.19
2018-07-11T11:17:30.088Z,28.2
2018-07-11T11:18:40.225Z,28.2
2018-07-11T11:19:50.046Z,28.38
2018-07-11T11:20:59.877Z,28.59
2018-07-11T11:22:09.701Z,28.65
2018-07-11T11:23:19.516Z,28.97
2018-07-11T11:24:29.654Z,29.27
2018-07-11T11:25:39.337Z,29.46
2018-07-11T11:26:49.331Z,29.62
2018-07-11T11:27:59.148Z,29.86
2018-07-11T11:29:08.958Z,30.06
2018-07-11T11:30:18.569Z,30.2
2018-07-11T11:31:28.656Z,30.13
2018-07-11T11:32:38.732Z,30.38
2018-07-11T11:33:48.552Z,30.46
2018-07-11T11:34:58.108Z,30.39
2018-07-11T11:36:07.984Z,30.46
2018-07-11T11:37:17.813Z,30.76
2018-07-11T11:38:27.918Z,30.81
2018-07-11T11:39:37.986Z,30.89
2018-07-11T11:40:47.815Z,31.05
2018-07-11T11:41:58.412Z,30.95
2018-07-11T11:43:09.416Z,30.65
2018-07-11T11:44:19.545Z,30.61
2018-07-11T11:45:29.326Z,30.49
2018-07-11T11:46:39.112Z,30.43
2018-07-11T11:47:49.515Z,30.32
2018-07-11T11:48:59.879Z,30.49
2018-07-11T11:50:09.817Z,30.26
2018-07-11T11:51:19.912Z,29.86
2018-07-11T11:52:29.726Z,30.29
2018-07-11T11:53:39.870Z,31.17
2018-07-11T11:54:49.963Z,31.62
2018-07-11T11:56:00.059Z,31.51
2018-07-11T11:57:09.882Z,31.82
2018-07-11T11:58:19.210Z,32.48
2018-07-11T11:59:29.072Z,32.17
2018-07-11T12:00:39.166Z,32.07
2018-07-11T12:01:49.173Z,31.74
2018-07-11T12:02:59.201Z,31.78
2018-07-11T12:04:08.469Z,32.11
2018-07-11T12:05:18.605Z,32
2018-07-11T12:06:28.695Z,31.66
2018-07-11T12:07:38.788Z,32.09
2018-07-11T12:08:48.623Z,32.59
2018-07-11T12:09:58.695Z,33.08
2018-07-11T12:11:08.816Z,33.23
2018-07-11T12:12:18.634Z,33.85
2018-07-11T12:13:28.460Z,33.66
2018-07-11T12:14:38.548Z,33.5
2018-07-11T12:15:48.089Z,33.89
2018-07-11T12:16:58.230Z,33.47
2018-07-11T12:18:07.782Z,33.66
2018-07-11T12:19:17.865Z,33.58
2018-07-11T12:20:27.693Z,33.19
2018-07-11T12:21:37.391Z,32.97
2018-07-11T12:22:47.004Z,33.47
2018-07-11T12:23:57.075Z,33.05
2018-07-11T12:25:06.910Z,32.71
2018-07-11T12:26:16.458Z,32.11
2018-07-11T12:27:26.546Z,32.05
2018-07-11T12:28:36.134Z,32.6
2018-07-11T12:29:46.242Z,32.41
2018-07-11T12:30:56.325Z,32.09
2018-07-11T12:32:06.146Z,32.53
2018-07-11T12:33:15.959Z,32.97
2018-07-11T12:34:26.094Z,33.29
2018-07-11T12:35:35.908Z,33.16
2018-07-11T12:36:45.994Z,33.45
2018-07-11T12:37:55.813Z,33.32
2018-07-11T12:39:05.895Z,32.86
2018-07-11T12:40:15.767Z,32.93
2018-07-11T12:41:25.871Z,33.19
2018-07-11T12:42:35.674Z,33.13
2018-07-11T12:43:45.515Z,33.08
2018-07-11T12:44:55.337Z,33.01
2018-07-11T12:46:05.214Z,33.48
2018-07-11T12:47:14.757Z,34.4
2018-07-11T12:48:24.310Z,34.65
2018-07-11T12:49:34.131Z,34.58
2018-07-11T12:50:44.208Z,34.55
2018-07-11T12:51:54.356Z,34.88
2018-07-11T12:53:04.453Z,35.39
2018-07-11T12:54:14.543Z,35.68
2018-07-11T12:55:24.373Z,35.69
2018-07-11T12:56:33.913Z,35.63
2018-07-11T12:57:44.044Z,34.89
2018-07-11T12:58:53.884Z,34.56
2018-07-11T13:00:03.718Z,34
2018-07-11T13:01:13.262Z,34
2018-07-11T13:02:23.360Z,33.4
2018-07-11T13:03:33.246Z,33.22
2018-07-11T13:04:43.070Z,33.98
2018-07-11T13:05:52.632Z,33.7
2018-07-11T13:07:02.197Z,34.31
2018-07-11T13:08:12.293Z,34.46
2018-07-11T13:09:22.180Z,34.5
2018-07-11T13:10:32.276Z,34.5
2018-07-11T13:11:42.374Z,34.33
2018-07-11T13:12:52.463Z,33.85
2018-07-11T13:14:02.559Z,33.53
2018-07-11T13:15:12.426Z,33.26
2018-07-11T13:16:22.468Z,33.7
2018-07-11T13:17:32.085Z,33.97
2018-07-11T13:18:41.919Z,34.11
2018-07-11T13:19:51.742Z,34.16
2018-07-11T13:21:01.620Z,34.37
2018-07-11T13:22:10.900Z,34.03
2018-07-11T13:23:20.987Z,34.03
2018-07-11T13:24:30.266Z,34.25
2018-07-11T13:25:40.695Z,34.65
2018-07-11T13:26:50.507Z,35.04
2018-07-11T13:28:00.588Z,35.26
2018-07-11T13:29:10.162Z,35.44
2018-07-11T13:30:20.257Z,35.74
2018-07-11T13:31:29.804Z,36.09
2018-07-11T13:32:39.969Z,36.75
2018-07-11T13:33:50.066Z,37.34
2018-07-11T13:34:59.866Z,37.92
2018-07-11T13:36:09.420Z,38.68
2018-07-11T13:37:18.696Z,39.38
2018-07-11T13:38:28.309Z,40.07
2018-07-11T13:39:38.420Z,40.42
2018-07-11T13:40:47.978Z,40
2018-07-11T13:41:58.060Z,40.12
2018-07-11T13:43:07.616Z,40.69
2018-07-11T13:44:17.201Z,41.15
2018-07-11T13:45:27.292Z,40.86
2018-07-11T13:46:37.123Z,41.26
2018-07-11T13:47:47.212Z,41.55
2018-07-11T13:48:57.287Z,41.87
2018-07-11T13:50:07.442Z,42.33
2018-07-11T13:51:17.260Z,42.75
2018-07-11T13:52:27.350Z,43.25
2018-07-11T13:53:37.217Z,43.28
2018-07-11T13:54:47.330Z,43.81
2018-07-11T13:55:57.262Z,44.22
2018-07-11T13:57:06.815Z,44.21
2018-07-11T13:58:16.632Z,44.23
2018-07-11T13:59:26.469Z,43.77
2018-07-11T14:00:36.294Z,43.58
2018-07-11T14:01:46.422Z,43.66
2018-07-11T14:02:55.970Z,43.65
2018-07-11T14:04:05.797Z,43.39
2018-07-11T14:05:15.629Z,42.46
2018-07-11T14:06:25.462Z,42.12
2018-07-11T14:07:35.119Z,42.12
2018-07-11T14:08:44.748Z,42.36
2018-07-11T14:09:54.855Z,42.58
2018-07-11T14:11:04.417Z,42.71
2018-07-11T14:12:13.695Z,41.15
2018-07-11T14:13:23.830Z,41.18
2018-07-11T14:14:33.926Z,40.9
2018-07-11T14:15:44.044Z,41.04
2018-07-11T14:16:54.118Z,41.24
2018-07-11T14:18:04.227Z,40.57
2018-07-11T14:19:14.097Z,40.07
2018-07-11T14:20:24.370Z,39.66
2018-07-11T14:21:34.604Z,39.44
2018-07-11T14:22:44.422Z,38.95
2018-07-11T14:23:54.517Z,38.76
2018-07-11T14:25:03.587Z,38.6
2018-07-11T14:26:13.701Z,38.73
2018-07-11T14:27:23.799Z,38.72
2018-07-11T14:28:33.627Z,39.05
2018-07-11T14:29:43.544Z,39.71
2018-07-11T14:30:53.623Z,40.35
2018-07-11T14:32:03.710Z,40.93
2018-07-11T14:33:13.800Z,41.42
2018-07-11T14:34:23.337Z,41.91
2018-07-11T14:35:33.142Z,42.44
2018-07-11T14:36:42.739Z,42.65
2018-07-11T14:37:52.578Z,42.56
2018-07-11T14:39:02.672Z,42.46
2018-07-11T14:40:12.506Z,42.34
2018-07-11T14:41:22.063Z,42.03
2018-07-11T14:42:31.937Z,41.74
2018-07-11T14:43:41.754Z,41.52
2018-07-11T14:44:51.666Z,41.1
2018-07-11T14:46:01.483Z,40.61
2018-07-11T14:47:11.036Z,40.17
2018-07-11T14:48:21.170Z,39.83
2018-07-11T14:49:30.991Z,39.45
2018-07-11T14:50:41.096Z,39.12
2018-07-11T14:51:51.175Z,38.82
2018-07-11T14:53:01.273Z,38.5
2018-07-11T14:54:11.398Z,38.09
2018-07-11T14:55:21.208Z,37.66
2018-07-11T14:56:31.020Z,37.4
2018-07-11T14:57:41.105Z,37.09
2018-07-11T14:58:50.934Z,36.65
2018-07-11T15:00:01.062Z,36.31
2018-07-11T15:01:10.595Z,36.09
2018-07-11T15:02:20.683Z,35.81
2018-07-11T15:03:30.774Z,35.69
2018-07-11T15:04:40.598Z,35.53
2018-07-11T15:05:50.734Z,35.25
2018-07-11T15:07:00.816Z,35.08